sensor_id;sensor_type;location;lat;lon;timestamp;temperature;humidity
13817;DHT22;6979;52.116;5.286;2022-08-23T00:02:01;25.00;88.40
13817;DHT22;6979;52.116;5.286;2022-08-23T00:04:30;24.90;88.40
13817;DHT22;6979;52.116;5.286;2022-08-23T00:06:59;24.90;88.40
13817;DHT22;6979;52.116;5.286;2022-08-23T00:09:27;24.90;88.60
13817;DHT22;6979;52.116;5.286;2022-08-23T00:12:04;24.90;88.50
13817;DHT22;6979;52.116;5.286;2022-08-23T00:14:35;24.80;89.00
13817;DHT22;6979;52.116;5.286;2022-08-23T00:17:03;24.80;88.90
13817;DHT22;6979;52.116;5.286;2022-08-23T00:19:31;24.70;89.00
13817;DHT22;6979;52.116;5.286;2022-08-23T00:22:02;24.70;89.00
13817;DHT22;6979;52.116;5.286;2022-08-23T00:24:29;24.70;89.30
13817;DHT22;6979;52.116;5.286;2022-08-23T00:27:01;24.60;89.20
13817;DHT22;6979;52.116;5.286;2022-08-23T00:29:32;24.60;89.60
13817;DHT22;6979;52.116;5.286;2022-08-23T00:31:59;24.60;89.60
13817;DHT22;6979;52.116;5.286;2022-08-23T00:34:26;24.50;89.50
13817;DHT22;6979;52.116;5.286;2022-08-23T00:36:54;24.50;89.60
13817;DHT22;6979;52.116;5.286;2022-08-23T00:39:23;24.40;90.00
13817;DHT22;6979;52.116;5.286;2022-08-23T00:41:51;24.40;89.90
13817;DHT22;6979;52.116;5.286;2022-08-23T00:44:20;24.40;89.90
13817;DHT22;6979;52.116;5.286;2022-08-23T00:47:07;24.30;90.10
13817;DHT22;6979;52.116;5.286;2022-08-23T00:50:00;24.30;90.00
13817;DHT22;6979;52.116;5.286;2022-08-23T00:52:32;24.30;90.20
13817;DHT22;6979;52.116;5.286;2022-08-23T00:55:01;24.30;90.30
13817;DHT22;6979;52.116;5.286;2022-08-23T00:57:29;24.20;90.40
13817;DHT22;6979;52.116;5.286;2022-08-23T00:59:56;24.20;90.40
13817;DHT22;6979;52.116;5.286;2022-08-23T01:02:23;24.20;90.40
13817;DHT22;6979;52.116;5.286;2022-08-23T01:04:54;24.10;90.60
13817;DHT22;6979;52.116;5.286;2022-08-23T01:07:32;24.10;90.70
13817;DHT22;6979;52.116;5.286;2022-08-23T01:10:08;24.10;90.80
13817;DHT22;6979;52.116;5.286;2022-08-23T01:12:38;24.00;91.00
13817;DHT22;6979;52.116;5.286;2022-08-23T01:15:10;24.00;90.90
13817;DHT22;6979;52.116;5.286;2022-08-23T01:17:44;24.00;91.20
13817;DHT22;6979;52.116;5.286;2022-08-23T01:20:14;24.00;91.20
13817;DHT22;6979;52.116;5.286;2022-08-23T01:22:47;24.00;91.30
13817;DHT22;6979;52.116;5.286;2022-08-23T01:25:19;24.00;91.30
13817;DHT22;6979;52.116;5.286;2022-08-23T01:27:47;24.00;91.30
13817;DHT22;6979;52.116;5.286;2022-08-23T01:30:19;23.90;91.30
13817;DHT22;6979;52.116;5.286;2022-08-23T01:32:48;23.90;91.40
13817;DHT22;6979;52.116;5.286;2022-08-23T01:35:17;23.90;91.60
13817;DHT22;6979;52.116;5.286;2022-08-23T01:37:44;23.90;91.60
13817;DHT22;6979;52.116;5.286;2022-08-23T01:40:11;23.90;91.70
13817;DHT22;6979;52.116;5.286;2022-08-23T01:42:41;23.90;91.70
13817;DHT22;6979;52.116;5.286;2022-08-23T01:45:12;23.90;91.90
13817;DHT22;6979;52.116;5.286;2022-08-23T01:47:40;23.90;91.90
13817;DHT22;6979;52.116;5.286;2022-08-23T01:50:09;23.90;91.90
13817;DHT22;6979;52.116;5.286;2022-08-23T01:52:37;23.90;91.80
13817;DHT22;6979;52.116;5.286;2022-08-23T01:55:05;23.90;91.80
13817;DHT22;6979;52.116;5.286;2022-08-23T01:57:33;23.90;92.00
13817;DHT22;6979;52.116;5.286;2022-08-23T02:00:05;23.90;92.10
13817;DHT22;6979;52.116;5.286;2022-08-23T02:02:38;23.90;92.10
13817;DHT22;6979;52.116;5.286;2022-08-23T02:05:06;23.90;92.10
13817;DHT22;6979;52.116;5.286;2022-08-23T02:07:34;23.90;92.30
13817;DHT22;6979;52.116;5.286;2022-08-23T02:10:03;23.90;92.30
13817;DHT22;6979;52.116;5.286;2022-08-23T02:12:31;23.90;92.20
13817;DHT22;6979;52.116;5.286;2022-08-23T02:15:10;23.90;92.30
13817;DHT22;6979;52.116;5.286;2022-08-23T02:17:40;23.90;92.30
13817;DHT22;6979;52.116;5.286;2022-08-23T02:20:10;23.90;92.30
13817;DHT22;6979;52.116;5.286;2022-08-23T02:22:37;23.90;92.30
13817;DHT22;6979;52.116;5.286;2022-08-23T02:25:05;23.90;92.30
13817;DHT22;6979;52.116;5.286;2022-08-23T02:27:32;23.90;92.60
13817;DHT22;6979;52.116;5.286;2022-08-23T02:29:59;23.90;92.70
13817;DHT22;6979;52.116;5.286;2022-08-23T02:32:27;23.80;92.70
13817;DHT22;6979;52.116;5.286;2022-08-23T02:34:54;23.80;92.70
13817;DHT22;6979;52.116;5.286;2022-08-23T02:37:22;23.80;92.70
13817;DHT22;6979;52.116;5.286;2022-08-23T02:39:49;23.80;92.70
13817;DHT22;6979;52.116;5.286;2022-08-23T02:42:16;23.80;92.90
13817;DHT22;6979;52.116;5.286;2022-08-23T02:44:46;23.70;93.00
13817;DHT22;6979;52.116;5.286;2022-08-23T02:47:13;23.70;93.10
13817;DHT22;6979;52.116;5.286;2022-08-23T02:49:48;23.70;93.00
13817;DHT22;6979;52.116;5.286;2022-08-23T02:52:16;23.60;93.40
13817;DHT22;6979;52.116;5.286;2022-08-23T02:54:43;23.60;93.60
13817;DHT22;6979;52.116;5.286;2022-08-23T02:57:10;23.60;93.80
13817;DHT22;6979;52.116;5.286;2022-08-23T02:59:37;23.50;93.90
13817;DHT22;6979;52.116;5.286;2022-08-23T03:02:04;23.40;94.00
13817;DHT22;6979;52.116;5.286;2022-08-23T03:04:37;23.40;94.30
13817;DHT22;6979;52.116;5.286;2022-08-23T03:07:05;23.40;94.50
13817;DHT22;6979;52.116;5.286;2022-08-23T03:09:33;23.30;94.70
13817;DHT22;6979;52.116;5.286;2022-08-23T03:11:59;23.30;94.80
13817;DHT22;6979;52.116;5.286;2022-08-23T03:14:26;23.20;95.00
13817;DHT22;6979;52.116;5.286;2022-08-23T03:16:54;23.20;95.20
13817;DHT22;6979;52.116;5.286;2022-08-23T03:19:21;23.20;95.30
13817;DHT22;6979;52.116;5.286;2022-08-23T03:21:49;23.20;95.30
13817;DHT22;6979;52.116;5.286;2022-08-23T03:24:18;23.10;95.50
13817;DHT22;6979;52.116;5.286;2022-08-23T03:26:45;23.10;95.70
13817;DHT22;6979;52.116;5.286;2022-08-23T03:29:14;23.10;95.70
13817;DHT22;6979;52.116;5.286;2022-08-23T03:31:56;23.10;95.80
13817;DHT22;6979;52.116;5.286;2022-08-23T03:34:23;23.20;95.80
13817;DHT22;6979;52.116;5.286;2022-08-23T03:36:50;23.20;95.90
13817;DHT22;6979;52.116;5.286;2022-08-23T03:39:18;23.20;96.40
13817;DHT22;6979;52.116;5.286;2022-08-23T03:41:45;23.20;96.60
13817;DHT22;6979;52.116;5.286;2022-08-23T03:44:12;23.30;96.40
13817;DHT22;6979;52.116;5.286;2022-08-23T03:46:41;23.30;96.40
13817;DHT22;6979;52.116;5.286;2022-08-23T03:49:08;23.30;96.70
13817;DHT22;6979;52.116;5.286;2022-08-23T03:51:43;23.30;96.50
13817;DHT22;6979;52.116;5.286;2022-08-23T03:54:11;23.40;96.70
13817;DHT22;6979;52.116;5.286;2022-08-23T03:56:49;23.40;96.70
13817;DHT22;6979;52.116;5.286;2022-08-23T03:59:17;23.40;96.90
13817;DHT22;6979;52.116;5.286;2022-08-23T04:01:44;23.40;96.70
13817;DHT22;6979;52.116;5.286;2022-08-23T04:04:10;23.50;96.80
13817;DHT22;6979;52.116;5.286;2022-08-23T04:06:47;23.50;97.00
13817;DHT22;6979;52.116;5.286;2022-08-23T04:09:15;23.50;97.10
13817;DHT22;6979;52.116;5.286;2022-08-23T04:11:44;23.50;97.20
13817;DHT22;6979;52.116;5.286;2022-08-23T04:14:12;23.50;97.50
13817;DHT22;6979;52.116;5.286;2022-08-23T04:16:39;23.50;97.40
13817;DHT22;6979;52.116;5.286;2022-08-23T04:19:10;23.60;97.70
13817;DHT22;6979;52.116;5.286;2022-08-23T04:21:47;23.60;97.80
13817;DHT22;6979;52.116;5.286;2022-08-23T04:24:15;23.60;97.70
13817;DHT22;6979;52.116;5.286;2022-08-23T04:26:45;23.60;97.60
13817;DHT22;6979;52.116;5.286;2022-08-23T04:29:14;23.60;97.70
13817;DHT22;6979;52.116;5.286;2022-08-23T04:31:43;23.60;97.90
13817;DHT22;6979;52.116;5.286;2022-08-23T04:34:11;23.60;98.10
13817;DHT22;6979;52.116;5.286;2022-08-23T04:36:41;23.60;98.30
13817;DHT22;6979;52.116;5.286;2022-08-23T04:39:08;23.60;98.20
13817;DHT22;6979;52.116;5.286;2022-08-23T04:41:36;23.70;98.30
13817;DHT22;6979;52.116;5.286;2022-08-23T04:44:22;23.70;98.30
13817;DHT22;6979;52.116;5.286;2022-08-23T04:46:51;23.70;98.40
13817;DHT22;6979;52.116;5.286;2022-08-23T04:49:18;23.70;98.40
13817;DHT22;6979;52.116;5.286;2022-08-23T04:51:47;23.70;98.50
13817;DHT22;6979;52.116;5.286;2022-08-23T04:54:14;23.70;98.60
13817;DHT22;6979;52.116;5.286;2022-08-23T04:56:59;23.70;98.70
13817;DHT22;6979;52.116;5.286;2022-08-23T04:59:27;23.70;98.60
13817;DHT22;6979;52.116;5.286;2022-08-23T05:01:54;23.70;98.70
13817;DHT22;6979;52.116;5.286;2022-08-23T05:04:21;23.70;98.70
13817;DHT22;6979;52.116;5.286;2022-08-23T05:06:48;23.70;98.80
13817;DHT22;6979;52.116;5.286;2022-08-23T05:09:16;23.80;99.00
13817;DHT22;6979;52.116;5.286;2022-08-23T05:11:43;23.80;99.00
13817;DHT22;6979;52.116;5.286;2022-08-23T05:14:11;23.80;99.30
13817;DHT22;6979;52.116;5.286;2022-08-23T05:16:39;23.80;99.20
13817;DHT22;6979;52.116;5.286;2022-08-23T05:19:08;23.90;99.30
13817;DHT22;6979;52.116;5.286;2022-08-23T05:21:41;23.90;99.20
13817;DHT22;6979;52.116;5.286;2022-08-23T05:24:08;23.90;99.50
13817;DHT22;6979;52.116;5.286;2022-08-23T05:26:35;23.90;99.60
13817;DHT22;6979;52.116;5.286;2022-08-23T05:29:03;23.90;99.60
13817;DHT22;6979;52.116;5.286;2022-08-23T05:31:38;24.00;99.70
13817;DHT22;6979;52.116;5.286;2022-08-23T05:34:05;24.00;99.90
13817;DHT22;6979;52.116;5.286;2022-08-23T05:36:46;24.10;99.90
13817;DHT22;6979;52.116;5.286;2022-08-23T05:39:14;24.10;99.90
13817;DHT22;6979;52.116;5.286;2022-08-23T05:41:43;24.10;99.90
13817;DHT22;6979;52.116;5.286;2022-08-23T05:44:11;24.20;99.90
13817;DHT22;6979;52.116;5.286;2022-08-23T05:46:42;24.20;99.90
13817;DHT22;6979;52.116;5.286;2022-08-23T05:49:30;24.20;99.90
13817;DHT22;6979;52.116;5.286;2022-08-23T05:51:58;24.30;99.90
13817;DHT22;6979;52.116;5.286;2022-08-23T05:54:29;24.30;99.90
13817;DHT22;6979;52.116;5.286;2022-08-23T05:57:16;24.30;99.90
13817;DHT22;6979;52.116;5.286;2022-08-23T05:59:43;24.40;99.90
13817;DHT22;6979;52.116;5.286;2022-08-23T06:02:11;24.40;99.90
13817;DHT22;6979;52.116;5.286;2022-08-23T06:04:40;24.50;99.90
13817;DHT22;6979;52.116;5.286;2022-08-23T06:07:09;24.50;99.90
13817;DHT22;6979;52.116;5.286;2022-08-23T06:09:37;24.60;99.90
13817;DHT22;6979;52.116;5.286;2022-08-23T06:12:06;24.60;99.90
13817;DHT22;6979;52.116;5.286;2022-08-23T06:14:33;24.70;99.90
13817;DHT22;6979;52.116;5.286;2022-08-23T06:17:01;24.70;99.90
13817;DHT22;6979;52.116;5.286;2022-08-23T06:19:33;24.80;99.90
13817;DHT22;6979;52.116;5.286;2022-08-23T06:22:21;24.80;99.90
13817;DHT22;6979;52.116;5.286;2022-08-23T06:24:48;24.90;99.90
13817;DHT22;6979;52.116;5.286;2022-08-23T06:27:15;24.90;99.90
13817;DHT22;6979;52.116;5.286;2022-08-23T06:29:42;25.00;99.90
13817;DHT22;6979;52.116;5.286;2022-08-23T06:32:28;25.00;99.90
13817;DHT22;6979;52.116;5.286;2022-08-23T06:35:14;25.10;99.90
13817;DHT22;6979;52.116;5.286;2022-08-23T06:37:53;25.10;99.90
13817;DHT22;6979;52.116;5.286;2022-08-23T06:40:39;25.10;99.90
13817;DHT22;6979;52.116;5.286;2022-08-23T06:43:36;25.10;99.90
13817;DHT22;6979;52.116;5.286;2022-08-23T06:46:19;25.10;99.90
13817;DHT22;6979;52.116;5.286;2022-08-23T06:48:47;25.10;99.90
13817;DHT22;6979;52.116;5.286;2022-08-23T06:51:21;25.10;99.90
13817;DHT22;6979;52.116;5.286;2022-08-23T06:54:12;25.10;99.90
13817;DHT22;6979;52.116;5.286;2022-08-23T06:56:56;25.10;99.90
13817;DHT22;6979;52.116;5.286;2022-08-23T06:59:43;25.10;99.90
13817;DHT22;6979;52.116;5.286;2022-08-23T07:02:25;25.10;99.90
13817;DHT22;6979;52.116;5.286;2022-08-23T07:05:11;25.10;99.90
13817;DHT22;6979;52.116;5.286;2022-08-23T07:07:58;25.10;99.90
13817;DHT22;6979;52.116;5.286;2022-08-23T07:10:26;25.10;99.90
13817;DHT22;6979;52.116;5.286;2022-08-23T07:12:54;25.10;99.90
13817;DHT22;6979;52.116;5.286;2022-08-23T07:15:26;25.10;99.90
13817;DHT22;6979;52.116;5.286;2022-08-23T07:17:53;25.10;99.90
13817;DHT22;6979;52.116;5.286;2022-08-23T07:20:46;25.10;99.90
13817;DHT22;6979;52.116;5.286;2022-08-23T07:23:33;25.20;99.90
13817;DHT22;6979;52.116;5.286;2022-08-23T07:26:06;25.20;99.90
13817;DHT22;6979;52.116;5.286;2022-08-23T07:28:33;25.20;99.90
13817;DHT22;6979;52.116;5.286;2022-08-23T07:31:12;25.20;99.90
13817;DHT22;6979;52.116;5.286;2022-08-23T07:33:40;25.30;99.90
13817;DHT22;6979;52.116;5.286;2022-08-23T07:36:13;25.30;99.90
13817;DHT22;6979;52.116;5.286;2022-08-23T07:38:43;25.40;99.90
13817;DHT22;6979;52.116;5.286;2022-08-23T07:41:11;25.40;99.90
13817;DHT22;6979;52.116;5.286;2022-08-23T07:43:39;25.50;99.90
13817;DHT22;6979;52.116;5.286;2022-08-23T07:46:07;25.60;99.90
13817;DHT22;6979;52.116;5.286;2022-08-23T07:48:35;25.70;99.90
13817;DHT22;6979;52.116;5.286;2022-08-23T07:51:12;25.80;99.90
13817;DHT22;6979;52.116;5.286;2022-08-23T07:53:40;25.90;99.90
13817;DHT22;6979;52.116;5.286;2022-08-23T07:56:11;26.00;99.20
13817;DHT22;6979;52.116;5.286;2022-08-23T07:58:57;26.20;99.10
13817;DHT22;6979;52.116;5.286;2022-08-23T08:01:37;26.40;99.40
13817;DHT22;6979;52.116;5.286;2022-08-23T08:04:05;26.50;98.40
13817;DHT22;6979;52.116;5.286;2022-08-23T08:06:38;26.70;97.80
13817;DHT22;6979;52.116;5.286;2022-08-23T08:09:06;26.80;97.40
13817;DHT22;6979;52.116;5.286;2022-08-23T08:11:35;27.00;97.10
13817;DHT22;6979;52.116;5.286;2022-08-23T08:14:05;27.20;95.90
13817;DHT22;6979;52.116;5.286;2022-08-23T08:16:35;27.30;94.60
13817;DHT22;6979;52.116;5.286;2022-08-23T08:19:06;27.40;94.90
13817;DHT22;6979;52.116;5.286;2022-08-23T08:21:51;27.50;94.20
13817;DHT22;6979;52.116;5.286;2022-08-23T08:24:38;27.70;94.10
13817;DHT22;6979;52.116;5.286;2022-08-23T08:27:11;27.80;93.20
13817;DHT22;6979;52.116;5.286;2022-08-23T08:29:38;27.90;92.90
13817;DHT22;6979;52.116;5.286;2022-08-23T08:32:07;28.00;92.80
13817;DHT22;6979;52.116;5.286;2022-08-23T08:34:34;28.20;92.50
13817;DHT22;6979;52.116;5.286;2022-08-23T08:37:03;28.30;91.80
13817;DHT22;6979;52.116;5.286;2022-08-23T08:39:31;28.40;91.30
13817;DHT22;6979;52.116;5.286;2022-08-23T08:42:09;28.60;91.40
13817;DHT22;6979;52.116;5.286;2022-08-23T08:44:50;28.70;91.50
13817;DHT22;6979;52.116;5.286;2022-08-23T08:47:29;28.90;90.50
13817;DHT22;6979;52.116;5.286;2022-08-23T08:50:02;29.00;88.70
13817;DHT22;6979;52.116;5.286;2022-08-23T08:52:36;29.10;89.20
13817;DHT22;6979;52.116;5.286;2022-08-23T08:55:13;29.20;89.20
13817;DHT22;6979;52.116;5.286;2022-08-23T08:57:46;29.30;89.20
13817;DHT22;6979;52.116;5.286;2022-08-23T09:00:18;29.40;89.40
13817;DHT22;6979;52.116;5.286;2022-08-23T09:02:46;29.50;89.00
13817;DHT22;6979;52.116;5.286;2022-08-23T09:05:16;29.60;88.90
13817;DHT22;6979;52.116;5.286;2022-08-23T09:07:51;29.80;87.80
13817;DHT22;6979;52.116;5.286;2022-08-23T09:10:47;29.90;86.70
13817;DHT22;6979;52.116;5.286;2022-08-23T09:13:46;30.00;86.40
13817;DHT22;6979;52.116;5.286;2022-08-23T09:16:29;30.10;85.40
13817;DHT22;6979;52.116;5.286;2022-08-23T09:18:58;30.20;85.40
13817;DHT22;6979;52.116;5.286;2022-08-23T09:21:30;30.30;85.40
13817;DHT22;6979;52.116;5.286;2022-08-23T09:23:59;30.40;85.00
13817;DHT22;6979;52.116;5.286;2022-08-23T09:26:35;30.50;85.00
13817;DHT22;6979;52.116;5.286;2022-08-23T09:29:19;30.50;84.50
13817;DHT22;6979;52.116;5.286;2022-08-23T09:31:50;30.60;83.90
13817;DHT22;6979;52.116;5.286;2022-08-23T09:34:21;30.70;82.50
13817;DHT22;6979;52.116;5.286;2022-08-23T09:37:05;30.80;83.10
13817;DHT22;6979;52.116;5.286;2022-08-23T09:39:37;30.90;82.30
13817;DHT22;6979;52.116;5.286;2022-08-23T09:42:26;31.10;82.20
13817;DHT22;6979;52.116;5.286;2022-08-23T09:44:53;31.20;81.00
13817;DHT22;6979;52.116;5.286;2022-08-23T09:47:30;31.20;81.70
13817;DHT22;6979;52.116;5.286;2022-08-23T09:50:07;31.30;81.10
13817;DHT22;6979;52.116;5.286;2022-08-23T09:52:37;31.40;81.00
13817;DHT22;6979;52.116;5.286;2022-08-23T09:55:08;31.60;82.00
13817;DHT22;6979;52.116;5.286;2022-08-23T09:57:45;31.90;83.00
13817;DHT22;6979;52.116;5.286;2022-08-23T10:00:23;32.30;82.60
13817;DHT22;6979;52.116;5.286;2022-08-23T10:02:53;32.90;81.50
13817;DHT22;6979;52.116;5.286;2022-08-23T10:05:36;33.50;80.80
13817;DHT22;6979;52.116;5.286;2022-08-23T10:08:05;34.20;76.00
13817;DHT22;6979;52.116;5.286;2022-08-23T10:10:38;34.70;77.10
13817;DHT22;6979;52.116;5.286;2022-08-23T10:13:09;35.20;75.50
13817;DHT22;6979;52.116;5.286;2022-08-23T10:15:50;35.70;75.00
13817;DHT22;6979;52.116;5.286;2022-08-23T10:18:31;36.20;74.40
13817;DHT22;6979;52.116;5.286;2022-08-23T10:21:03;36.60;73.40
13817;DHT22;6979;52.116;5.286;2022-08-23T10:23:40;37.10;73.00
13817;DHT22;6979;52.116;5.286;2022-08-23T10:26:14;37.60;71.20
13817;DHT22;6979;52.116;5.286;2022-08-23T10:28:50;38.10;70.00
13817;DHT22;6979;52.116;5.286;2022-08-23T10:31:50;38.50;68.10
13817;DHT22;6979;52.116;5.286;2022-08-23T10:34:33;38.80;66.40
13817;DHT22;6979;52.116;5.286;2022-08-23T10:37:14;38.90;65.60
13817;DHT22;6979;52.116;5.286;2022-08-23T10:39:53;38.90;65.40
13817;DHT22;6979;52.116;5.286;2022-08-23T10:42:32;38.90;64.60
13817;DHT22;6979;52.116;5.286;2022-08-23T10:45:11;38.80;63.80
13817;DHT22;6979;52.116;5.286;2022-08-23T10:47:49;38.70;64.00
13817;DHT22;6979;52.116;5.286;2022-08-23T10:50:21;38.60;64.50
13817;DHT22;6979;52.116;5.286;2022-08-23T10:52:58;38.60;64.30
13817;DHT22;6979;52.116;5.286;2022-08-23T10:55:32;38.60;64.80
13817;DHT22;6979;52.116;5.286;2022-08-23T10:58:23;38.60;64.10
13817;DHT22;6979;52.116;5.286;2022-08-23T11:00:51;38.70;63.60
13817;DHT22;6979;52.116;5.286;2022-08-23T11:03:24;38.90;64.10
13817;DHT22;6979;52.116;5.286;2022-08-23T11:06:23;39.00;63.70
13817;DHT22;6979;52.116;5.286;2022-08-23T11:09:00;39.10;64.70
13817;DHT22;6979;52.116;5.286;2022-08-23T11:11:40;39.20;64.10
13817;DHT22;6979;52.116;5.286;2022-08-23T11:14:11;39.40;63.60
13817;DHT22;6979;52.116;5.286;2022-08-23T11:16:40;39.50;62.60
13817;DHT22;6979;52.116;5.286;2022-08-23T11:19:13;39.60;61.60
13817;DHT22;6979;52.116;5.286;2022-08-23T11:22:14;39.50;61.40
13817;DHT22;6979;52.116;5.286;2022-08-23T11:24:54;39.40;61.90
13817;DHT22;6979;52.116;5.286;2022-08-23T11:27:32;39.30;61.40
13817;DHT22;6979;52.116;5.286;2022-08-23T11:33:20;39.20;61.80
13817;DHT22;6979;52.116;5.286;2022-08-23T11:35:50;39.10;61.10
13817;DHT22;6979;52.116;5.286;2022-08-23T11:38:59;38.90;62.10
13817;DHT22;6979;52.116;5.286;2022-08-23T11:41:29;38.70;61.90
13817;DHT22;6979;52.116;5.286;2022-08-23T11:44:34;38.60;63.40
13817;DHT22;6979;52.116;5.286;2022-08-23T11:47:05;38.60;60.40
13817;DHT22;6979;52.116;5.286;2022-08-23T11:49:51;38.50;61.00
13817;DHT22;6979;52.116;5.286;2022-08-23T11:52:33;38.30;61.20
13817;DHT22;6979;52.116;5.286;2022-08-23T11:55:22;38.10;62.20
13817;DHT22;6979;52.116;5.286;2022-08-23T11:58:03;38.10;62.50
13817;DHT22;6979;52.116;5.286;2022-08-23T12:00:53;38.00;62.10
13817;DHT22;6979;52.116;5.286;2022-08-23T12:03:24;37.90;62.30
13817;DHT22;6979;52.116;5.286;2022-08-23T12:06:08;37.80;62.40
13817;DHT22;6979;52.116;5.286;2022-08-23T12:08:52;37.60;62.20
13817;DHT22;6979;52.116;5.286;2022-08-23T12:11:22;37.40;62.70
13817;DHT22;6979;52.116;5.286;2022-08-23T12:13:59;37.30;62.50
13817;DHT22;6979;52.116;5.286;2022-08-23T12:16:34;37.10;63.00
13817;DHT22;6979;52.116;5.286;2022-08-23T12:19:06;37.00;63.10
13817;DHT22;6979;52.116;5.286;2022-08-23T12:21:41;36.90;63.40
13817;DHT22;6979;52.116;5.286;2022-08-23T12:24:21;36.80;63.20
13817;DHT22;6979;52.116;5.286;2022-08-23T12:27:01;36.70;63.20
13817;DHT22;6979;52.116;5.286;2022-08-23T12:29:42;36.60;63.30
13817;DHT22;6979;52.116;5.286;2022-08-23T12:32:16;36.50;63.50
13817;DHT22;6979;52.116;5.286;2022-08-23T12:34:56;36.50;64.40
13817;DHT22;6979;52.116;5.286;2022-08-23T12:37:35;36.50;64.00
13817;DHT22;6979;52.116;5.286;2022-08-23T12:40:07;36.60;64.20
13817;DHT22;6979;52.116;5.286;2022-08-23T12:42:39;36.70;65.30
13817;DHT22;6979;52.116;5.286;2022-08-23T12:45:12;36.80;64.60
13817;DHT22;6979;52.116;5.286;2022-08-23T12:47:39;37.00;65.10
13817;DHT22;6979;52.116;5.286;2022-08-23T12:50:19;37.20;65.10
13817;DHT22;6979;52.116;5.286;2022-08-23T12:52:56;37.30;62.90
13817;DHT22;6979;52.116;5.286;2022-08-23T12:55:27;37.50;63.00
13817;DHT22;6979;52.116;5.286;2022-08-23T12:57:56;37.50;62.90
13817;DHT22;6979;52.116;5.286;2022-08-23T13:00:26;37.50;63.00
13817;DHT22;6979;52.116;5.286;2022-08-23T13:02:57;37.50;63.40
13817;DHT22;6979;52.116;5.286;2022-08-23T13:05:35;37.50;63.10
13817;DHT22;6979;52.116;5.286;2022-08-23T13:08:07;37.50;62.20
13817;DHT22;6979;52.116;5.286;2022-08-23T13:10:35;37.40;63.50
13817;DHT22;6979;52.116;5.286;2022-08-23T13:13:04;37.40;62.30
13817;DHT22;6979;52.116;5.286;2022-08-23T13:15:44;37.20;62.60
13817;DHT22;6979;52.116;5.286;2022-08-23T13:18:23;37.20;63.90
13817;DHT22;6979;52.116;5.286;2022-08-23T13:21:15;37.20;63.70
13817;DHT22;6979;52.116;5.286;2022-08-23T13:23:42;37.20;63.90
13817;DHT22;6979;52.116;5.286;2022-08-23T13:29:19;37.50;63.30
13817;DHT22;6979;52.116;5.286;2022-08-23T13:31:52;37.50;61.90
13817;DHT22;6979;52.116;5.286;2022-08-23T13:34:38;37.50;62.10
13817;DHT22;6979;52.116;5.286;2022-08-23T13:37:17;37.50;62.40
13817;DHT22;6979;52.116;5.286;2022-08-23T13:39:50;37.40;61.90
13817;DHT22;6979;52.116;5.286;2022-08-23T13:42:31;37.30;62.20
13817;DHT22;6979;52.116;5.286;2022-08-23T13:45:08;37.20;62.00
13817;DHT22;6979;52.116;5.286;2022-08-23T13:47:35;36.90;62.60
13817;DHT22;6979;52.116;5.286;2022-08-23T13:50:02;36.80;63.10
13817;DHT22;6979;52.116;5.286;2022-08-23T13:52:29;36.60;63.30
13817;DHT22;6979;52.116;5.286;2022-08-23T13:54:57;36.50;63.10
13817;DHT22;6979;52.116;5.286;2022-08-23T13:57:23;36.30;63.60
13817;DHT22;6979;52.116;5.286;2022-08-23T13:59:52;36.30;63.80
13817;DHT22;6979;52.116;5.286;2022-08-23T14:02:22;36.10;64.10
13817;DHT22;6979;52.116;5.286;2022-08-23T14:04:49;35.90;64.20
13817;DHT22;6979;52.116;5.286;2022-08-23T14:07:16;35.70;64.50
13817;DHT22;6979;52.116;5.286;2022-08-23T14:09:44;35.50;65.00
13817;DHT22;6979;52.116;5.286;2022-08-23T14:12:13;35.30;65.80
13817;DHT22;6979;52.116;5.286;2022-08-23T14:14:41;35.20;66.00
13817;DHT22;6979;52.116;5.286;2022-08-23T14:17:09;35.20;66.80
13817;DHT22;6979;52.116;5.286;2022-08-23T14:19:38;35.20;67.20
13817;DHT22;6979;52.116;5.286;2022-08-23T14:22:05;35.30;66.10
13817;DHT22;6979;52.116;5.286;2022-08-23T14:24:31;35.40;66.20
13817;DHT22;6979;52.116;5.286;2022-08-23T14:26:59;35.40;65.90
13817;DHT22;6979;52.116;5.286;2022-08-23T14:29:27;35.40;66.00
13817;DHT22;6979;52.116;5.286;2022-08-23T14:31:56;35.40;66.40
13817;DHT22;6979;52.116;5.286;2022-08-23T14:34:24;35.50;67.30
13817;DHT22;6979;52.116;5.286;2022-08-23T14:36:52;35.60;66.90
13817;DHT22;6979;52.116;5.286;2022-08-23T14:39:19;35.80;65.80
13817;DHT22;6979;52.116;5.286;2022-08-23T14:41:47;35.90;65.20
13817;DHT22;6979;52.116;5.286;2022-08-23T14:44:14;36.00;65.10
13817;DHT22;6979;52.116;5.286;2022-08-23T14:46:44;36.00;65.20
13817;DHT22;6979;52.116;5.286;2022-08-23T14:49:11;36.10;64.90
13817;DHT22;6979;52.116;5.286;2022-08-23T14:51:41;36.20;65.20
13817;DHT22;6979;52.116;5.286;2022-08-23T14:54:14;36.30;65.10
13817;DHT22;6979;52.116;5.286;2022-08-23T14:56:41;36.30;65.10
13817;DHT22;6979;52.116;5.286;2022-08-23T14:59:08;36.30;64.70
13817;DHT22;6979;52.116;5.286;2022-08-23T15:01:35;36.30;64.80
13817;DHT22;6979;52.116;5.286;2022-08-23T15:04:03;36.30;65.10
13817;DHT22;6979;52.116;5.286;2022-08-23T15:06:30;36.20;65.70
13817;DHT22;6979;52.116;5.286;2022-08-23T15:08:57;36.20;65.80
13817;DHT22;6979;52.116;5.286;2022-08-23T15:11:25;36.20;65.90
13817;DHT22;6979;52.116;5.286;2022-08-23T15:13:52;36.20;66.00
13817;DHT22;6979;52.116;5.286;2022-08-23T15:16:21;36.20;65.70
13817;DHT22;6979;52.116;5.286;2022-08-23T15:18:50;36.30;65.50
13817;DHT22;6979;52.116;5.286;2022-08-23T15:21:18;36.30;65.10
13817;DHT22;6979;52.116;5.286;2022-08-23T15:23:45;36.20;64.90
13817;DHT22;6979;52.116;5.286;2022-08-23T15:26:12;36.10;65.30
13817;DHT22;6979;52.116;5.286;2022-08-23T15:28:42;36.00;65.60
13817;DHT22;6979;52.116;5.286;2022-08-23T15:31:10;35.80;66.10
13817;DHT22;6979;52.116;5.286;2022-08-23T15:33:38;35.60;66.70
13817;DHT22;6979;52.116;5.286;2022-08-23T15:36:05;35.60;67.10
13817;DHT22;6979;52.116;5.286;2022-08-23T15:38:34;35.50;67.50
13817;DHT22;6979;52.116;5.286;2022-08-23T15:41:01;35.60;67.60
13817;DHT22;6979;52.116;5.286;2022-08-23T15:43:28;35.60;67.60
13817;DHT22;6979;52.116;5.286;2022-08-23T15:45:56;35.70;68.00
13817;DHT22;6979;52.116;5.286;2022-08-23T15:48:25;35.90;68.00
13817;DHT22;6979;52.116;5.286;2022-08-23T15:50:53;36.00;67.90
13817;DHT22;6979;52.116;5.286;2022-08-23T15:53:21;36.10;68.10
13817;DHT22;6979;52.116;5.286;2022-08-23T15:55:49;36.30;67.50
13817;DHT22;6979;52.116;5.286;2022-08-23T15:58:19;36.30;67.20
13817;DHT22;6979;52.116;5.286;2022-08-23T16:00:47;36.30;67.30
13817;DHT22;6979;52.116;5.286;2022-08-23T16:03:17;36.30;67.80
13817;DHT22;6979;52.116;5.286;2022-08-23T16:05:46;36.20;67.90
13817;DHT22;6979;52.116;5.286;2022-08-23T16:08:18;36.20;68.00
13817;DHT22;6979;52.116;5.286;2022-08-23T16:10:45;36.20;68.20
13817;DHT22;6979;52.116;5.286;2022-08-23T16:13:12;36.30;68.70
13817;DHT22;6979;52.116;5.286;2022-08-23T16:15:39;36.30;69.10
13817;DHT22;6979;52.116;5.286;2022-08-23T16:18:06;36.30;69.30
13817;DHT22;6979;52.116;5.286;2022-08-23T16:20:34;36.40;69.70
13817;DHT22;6979;52.116;5.286;2022-08-23T16:23:01;36.40;69.90
13817;DHT22;6979;52.116;5.286;2022-08-23T16:25:28;36.50;69.70